createdAt,value
2023-12-08T00:00:55.486Z,58.16
2023-12-08T00:01:55.542Z,58.36
2023-12-08T00:02:55.632Z,57.95
2023-12-08T00:03:55.630Z,56.74
2023-12-08T00:04:55.707Z,56.50
2023-12-08T00:05:55.780Z,56.55
2023-12-08T00:06:55.728Z,56.58
2023-12-08T00:07:55.765Z,55.94
2023-12-08T00:08:55.779Z,55.14
2023-12-08T00:09:55.816Z,54.75
2023-12-08T00:10:55.843Z,54.61
2023-12-08T00:11:55.908Z,54.50
2023-12-08T00:12:55.866Z,54.76
2023-12-08T00:13:55.850Z,55.57
2023-12-08T00:14:55.846Z,56.12
2023-12-08T00:15:55.848Z,56.20
2023-12-08T00:16:55.940Z,56.31
2023-12-08T00:17:55.938Z,56.69
2023-12-08T00:18:56.009Z,56.84
2023-12-08T00:19:56.044Z,56.89
2023-12-08T00:20:56.131Z,58.00
2023-12-08T00:21:56.159Z,58.79
2023-12-08T00:22:56.244Z,58.97
2023-12-08T00:23:56.424Z,59.39
2023-12-08T00:24:56.485Z,60.40
2023-12-08T00:25:56.600Z,61.60
2023-12-08T00:26:56.703Z,61.73
2023-12-08T00:27:56.838Z,62.75
2023-12-08T00:28:57.101Z,63.15
2023-12-08T00:29:57.435Z,64.49
2023-12-08T00:30:57.647Z,64.69
2023-12-08T00:31:57.874Z,63.06
2023-12-08T00:32:58.293Z,63.28
2023-12-08T00:33:58.452Z,62.41
2023-12-08T00:34:58.614Z,60.26
2023-12-08T00:35:58.924Z,58.81
2023-12-08T00:36:59.261Z,60.08
2023-12-08T00:37:59.439Z,60.18
2023-12-08T00:38:59.855Z,60.20
2023-12-08T00:39:59.970Z,60.06
2023-12-08T00:41:00.264Z,60.20
2023-12-08T00:42:00.541Z,59.13
2023-12-08T00:43:00.721Z,59.75
2023-12-08T00:44:00.946Z,60.41
2023-12-08T00:45:01.202Z,60.71
2023-12-08T00:46:01.539Z,60.64
2023-12-08T00:47:01.773Z,60.65
2023-12-08T00:48:02.237Z,61.02
2023-12-08T00:49:02.397Z,61.70
2023-12-08T00:50:02.563Z,61.44
2023-12-08T00:51:02.839Z,61.44
2023-12-08T00:52:02.987Z,61.32
2023-12-08T00:53:03.404Z,60.99
2023-12-08T00:54:03.654Z,60.19
2023-12-08T00:55:03.861Z,59.43
2023-12-08T00:56:04.044Z,59.67
2023-12-08T00:57:04.391Z,58.65
2023-12-08T00:58:04.664Z,58.95
2023-12-08T00:59:04.818Z,59.09
2023-12-08T01:00:05.230Z,58.08
2023-12-08T01:01:05.493Z,57.59
2023-12-08T01:02:05.610Z,58.51
2023-12-08T01:03:05.980Z,59.34
2023-12-08T01:04:06.209Z,59.29
2023-12-08T01:05:06.319Z,59.68
2023-12-08T01:06:06.704Z,59.42
2023-12-08T01:07:06.899Z,59.17
2023-12-08T01:08:07.096Z,59.19
2023-12-08T01:09:07.435Z,59.10
2023-12-08T01:10:07.609Z,59.47
2023-12-08T01:11:07.930Z,59.34
2023-12-08T01:12:08.280Z,59.29
2023-12-08T01:13:08.417Z,59.70
2023-12-08T01:14:08.629Z,59.31
2023-12-08T01:15:09.081Z,58.93
2023-12-08T01:16:09.217Z,58.32
2023-12-08T01:17:09.517Z,58.10
2023-12-08T01:18:09.794Z,56.66
2023-12-08T01:19:10.035Z,56.67
2023-12-08T01:20:10.259Z,56.53
2023-12-08T01:21:10.549Z,57.64
2023-12-08T01:22:10.782Z,58.01
2023-12-08T01:23:11.025Z,57.90
2023-12-08T01:24:11.421Z,55.28
2023-12-08T01:25:11.542Z,54.76
2023-12-08T01:26:11.776Z,54.94
2023-12-08T01:27:12.191Z,54.68
2023-12-08T01:28:12.509Z,53.99
2023-12-08T01:29:12.523Z,53.35
2023-12-08T01:30:12.830Z,56.32
2023-12-08T01:31:13.006Z,57.08
2023-12-08T01:32:13.315Z,57.39
2023-12-08T01:33:13.692Z,58.41
2023-12-08T01:34:14.066Z,58.91
2023-12-08T01:35:14.066Z,59.38
2023-12-08T01:36:39.121Z,59.71
2023-12-08T01:37:15.302Z,59.90
2023-12-08T01:38:14.360Z,60.08
2023-12-08T01:39:14.414Z,60.20
2023-12-08T01:40:15.280Z,60.30
2023-12-08T01:41:14.413Z,60.81
2023-12-08T01:42:14.463Z,61.16
2023-12-08T01:43:14.510Z,61.36
2023-12-08T01:44:14.529Z,61.85
2023-12-08T01:45:14.632Z,61.85
2023-12-08T01:46:14.613Z,62.17
2023-12-08T01:47:14.627Z,61.83
2023-12-08T01:48:14.766Z,61.92
2023-12-08T01:49:14.830Z,62.07
2023-12-08T01:50:14.797Z,61.80
2023-12-08T01:51:14.887Z,61.76
2023-12-08T01:52:14.898Z,61.50
2023-12-08T01:53:14.990Z,61.34
2023-12-08T01:54:15.100Z,61.27
2023-12-08T01:55:15.171Z,61.59
2023-12-08T01:56:15.217Z,61.45
2023-12-08T01:57:15.344Z,61.32
2023-12-08T01:58:15.420Z,61.38
2023-12-08T01:59:15.517Z,61.97
2023-12-08T02:00:15.600Z,62.42
2023-12-08T02:01:15.686Z,62.39
2023-12-08T02:02:15.626Z,62.30
2023-12-08T02:03:15.762Z,62.40
2023-12-08T02:04:15.867Z,62.03
2023-12-08T02:05:15.808Z,62.30
2023-12-08T02:06:15.925Z,62.10
2023-12-08T02:07:15.941Z,61.90
2023-12-08T02:08:15.982Z,62.07
2023-12-08T02:09:16.102Z,61.46
2023-12-08T02:10:16.137Z,61.20
2023-12-08T02:11:18.085Z,61.11
2023-12-08T02:12:16.172Z,60.80
2023-12-08T02:13:16.206Z,60.51
2023-12-08T02:14:16.279Z,60.75
2023-12-08T02:15:16.470Z,60.69
2023-12-08T02:16:16.412Z,60.05
2023-12-08T02:17:16.472Z,60.24
2023-12-08T02:18:16.640Z,60.42
2023-12-08T02:19:16.728Z,60.39
2023-12-08T02:20:16.685Z,60.82
2023-12-08T02:21:16.844Z,60.84
2023-12-08T02:22:16.830Z,60.92
2023-12-08T02:23:16.847Z,61.16
2023-12-08T02:24:16.869Z,61.17
2023-12-08T02:25:16.867Z,61.13
2023-12-08T02:26:16.924Z,60.70
2023-12-08T02:27:17.034Z,60.78
2023-12-08T02:28:17.078Z,60.36
2023-12-08T02:29:17.115Z,60.10
2023-12-08T02:30:17.270Z,59.79
2023-12-08T02:31:17.250Z,59.84
2023-12-08T02:32:17.350Z,59.48
2023-12-08T02:33:17.491Z,59.68
2023-12-08T02:34:17.470Z,59.63
2023-12-08T02:35:17.360Z,59.35
2023-12-08T02:36:17.532Z,59.13
2023-12-08T02:37:17.397Z,59.21
2023-12-08T02:38:17.386Z,59.27
2023-12-08T02:39:17.444Z,58.92
2023-12-08T02:40:17.409Z,59.00
2023-12-08T02:41:17.398Z,58.64
2023-12-08T02:42:17.469Z,58.46
2023-12-08T02:43:17.419Z,57.89
2023-12-08T02:44:17.433Z,57.08
2023-12-08T02:45:17.492Z,56.89
2023-12-08T02:46:17.478Z,56.48
2023-12-08T02:47:17.477Z,54.62
2023-12-08T02:48:17.593Z,54.69
2023-12-08T02:49:17.569Z,54.32
2023-12-08T02:50:17.480Z,53.31
2023-12-08T02:51:17.542Z,53.37
2023-12-08T02:52:17.541Z,53.24
2023-12-08T02:53:17.566Z,53.23
2023-12-08T02:54:17.685Z,53.64
2023-12-08T02:55:17.590Z,54.39
2023-12-08T02:56:17.600Z,54.41
2023-12-08T02:57:17.681Z,53.96
2023-12-08T02:58:17.659Z,54.40
2023-12-08T02:59:17.677Z,54.99
2023-12-08T03:00:17.722Z,56.16
2023-12-08T03:01:17.707Z,57.02
2023-12-08T03:02:17.688Z,57.35
2023-12-08T03:03:17.750Z,58.08
2023-12-08T03:04:17.796Z,58.25
2023-12-08T03:05:17.871Z,58.28
2023-12-08T03:06:17.921Z,58.64
2023-12-08T03:07:17.952Z,59.00
2023-12-08T03:08:17.965Z,59.85
2023-12-08T03:09:18.038Z,59.43
2023-12-08T03:10:18.030Z,59.29
2023-12-08T03:11:18.086Z,59.59
2023-12-08T03:12:18.105Z,58.94
2023-12-08T03:13:18.115Z,59.87
2023-12-08T03:14:18.173Z,59.42
2023-12-08T03:15:18.268Z,58.42
2023-12-08T03:16:18.278Z,58.48
2023-12-08T03:17:18.361Z,58.29
2023-12-08T03:18:18.389Z,57.59
2023-12-08T03:19:18.391Z,57.79
2023-12-08T03:20:18.378Z,57.59
2023-12-08T03:21:18.586Z,57.32
2023-12-08T03:22:18.764Z,57.46
2023-12-08T03:23:18.953Z,57.67
2023-12-08T03:24:19.275Z,57.51
2023-12-08T03:25:19.447Z,57.51
2023-12-08T03:26:19.647Z,57.10
2023-12-08T03:27:19.914Z,56.77
2023-12-08T03:28:20.177Z,57.13
2023-12-08T03:29:20.337Z,56.58
2023-12-08T03:30:20.634Z,56.18
2023-12-08T03:31:20.794Z,56.11
2023-12-08T03:32:21.027Z,55.83
2023-12-08T03:33:21.385Z,55.70
2023-12-08T03:34:21.629Z,54.74
2023-12-08T03:35:21.787Z,54.25
2023-12-08T03:36:21.881Z,55.33
2023-12-08T03:37:22.054Z,54.91
2023-12-08T03:38:22.349Z,54.87
2023-12-08T03:39:22.536Z,54.63
2023-12-08T03:40:22.712Z,54.56
2023-12-08T03:41:22.881Z,53.73
2023-12-08T03:42:23.169Z,53.29
2023-12-08T03:43:23.368Z,52.84
2023-12-08T03:44:23.636Z,51.87
2023-12-08T03:45:23.749Z,52.38
2023-12-08T03:46:24.000Z,52.64
2023-12-08T03:47:24.437Z,52.57
2023-12-08T03:48:24.296Z,51.00
2023-12-08T03:49:24.379Z,52.44
2023-12-08T03:50:24.206Z,52.68
2023-12-08T03:51:24.197Z,51.50
2023-12-08T03:52:24.215Z,50.66
2023-12-08T03:53:24.187Z,51.03
2023-12-08T03:54:24.187Z,51.80
2023-12-08T03:55:24.158Z,51.63
2023-12-08T03:56:24.199Z,52.30
2023-12-08T03:57:24.799Z,50.88
2023-12-08T03:58:24.446Z,51.14
2023-12-08T03:59:24.470Z,51.27
2023-12-08T04:00:24.423Z,51.51
2023-12-08T04:01:24.426Z,52.59
2023-12-08T04:02:24.658Z,52.71
2023-12-08T04:03:24.913Z,48.74
2023-12-08T04:04:27.156Z,49.01
2023-12-08T04:05:25.090Z,49.79
2023-12-08T04:06:25.004Z,50.11
2023-12-08T04:07:25.098Z,49.73
2023-12-08T04:08:24.874Z,47.72
2023-12-08T04:09:26.775Z,46.96
2023-12-08T04:10:24.769Z,48.05
2023-12-08T04:11:24.717Z,50.25
2023-12-08T04:12:24.659Z,49.85
2023-12-08T04:13:24.629Z,47.80
2023-12-08T04:14:24.539Z,47.87
2023-12-08T04:15:24.478Z,46.64
2023-12-08T04:16:24.419Z,48.61
2023-12-08T04:17:24.762Z,49.99
2023-12-08T04:18:24.407Z,51.71
2023-12-08T04:19:24.358Z,52.01
2023-12-08T04:20:24.166Z,52.48
2023-12-08T04:21:24.081Z,51.96
2023-12-08T04:22:24.011Z,52.74
2023-12-08T04:23:23.944Z,52.60
2023-12-08T04:24:23.894Z,52.72
2023-12-08T04:25:23.813Z,52.95
2023-12-08T04:26:23.745Z,51.70
2023-12-08T04:27:23.925Z,51.42
2023-12-08T04:28:23.628Z,52.21
2023-12-08T04:29:23.575Z,52.21
2023-12-08T04:30:23.590Z,52.45
2023-12-08T04:31:23.462Z,51.51
2023-12-08T04:32:23.432Z,54.11
2023-12-08T04:33:23.824Z,55.10
2023-12-08T04:34:23.983Z,55.39
2023-12-08T04:35:24.070Z,55.69
2023-12-08T04:36:24.298Z,56.13
2023-12-08T04:37:24.880Z,55.23
2023-12-08T04:38:24.738Z,55.64
2023-12-08T04:39:24.969Z,55.90
2023-12-08T04:40:25.234Z,56.12
2023-12-08T04:41:25.460Z,55.65
2023-12-08T04:42:25.629Z,55.86
2023-12-08T04:43:25.873Z,55.75
2023-12-08T04:44:26.152Z,56.27
2023-12-08T04:45:26.478Z,56.80
2023-12-08T04:46:26.583Z,56.94
2023-12-08T04:47:27.070Z,57.19
2023-12-08T04:48:27.112Z,57.33
2023-12-08T04:49:35.531Z,57.48
2023-12-08T04:50:34.691Z,57.80
2023-12-08T04:51:34.630Z,57.91
2023-12-08T04:52:34.622Z,58.09
2023-12-08T04:53:34.690Z,58.58
2023-12-08T04:54:34.625Z,58.70
2023-12-08T04:55:34.615Z,58.50
2023-12-08T04:56:34.640Z,58.33
2023-12-08T04:57:34.711Z,58.24
2023-12-08T04:58:34.601Z,57.07
2023-12-08T04:59:34.657Z,56.83
2023-12-08T05:00:34.590Z,56.21
2023-12-08T05:01:34.765Z,56.36
2023-12-08T05:02:34.988Z,55.34
2023-12-08T05:03:35.158Z,55.28
2023-12-08T05:04:35.434Z,55.53
2023-12-08T05:05:35.721Z,55.93
2023-12-08T05:06:36.048Z,55.54
2023-12-08T05:07:36.069Z,54.41
2023-12-08T05:08:36.318Z,55.49
2023-12-08T05:09:36.553Z,55.81
2023-12-08T05:10:36.763Z,54.25
2023-12-08T05:11:37.036Z,55.29
2023-12-08T05:12:37.185Z,54.97
2023-12-08T05:13:37.434Z,54.86
2023-12-08T05:14:37.735Z,55.00
2023-12-08T05:15:37.812Z,54.30
2023-12-08T05:16:38.121Z,55.56
2023-12-08T05:17:38.402Z,56.51
2023-12-08T05:18:38.545Z,56.68
2023-12-08T05:19:38.816Z,57.17
2023-12-08T05:20:39.019Z,57.61
2023-12-08T05:21:39.235Z,58.26
2023-12-08T05:22:39.429Z,57.88
2023-12-08T05:23:39.688Z,55.86
2023-12-08T05:24:39.871Z,54.40
2023-12-08T05:25:40.133Z,53.57
2023-12-08T05:26:40.363Z,52.24
2023-12-08T05:27:40.588Z,56.19
2023-12-08T05:28:40.842Z,54.46
2023-12-08T05:29:41.041Z,54.67
2023-12-08T05:30:41.276Z,54.62
2023-12-08T05:31:41.453Z,54.65
2023-12-08T05:32:41.805Z,54.97
2023-12-08T05:33:42.030Z,56.34
2023-12-08T05:34:42.166Z,53.74
2023-12-08T05:35:42.334Z,53.61
2023-12-08T05:36:42.529Z,52.60
2023-12-08T05:37:42.821Z,53.99
2023-12-08T05:38:43.120Z,53.19
2023-12-08T05:39:43.193Z,54.36
2023-12-08T05:40:43.503Z,55.08
2023-12-08T05:41:43.709Z,51.81
2023-12-08T05:42:43.901Z,53.83
2023-12-08T05:43:44.108Z,53.58
2023-12-08T05:44:44.335Z,51.58
2023-12-08T05:45:44.612Z,52.24
2023-12-08T05:46:44.793Z,54.40
2023-12-08T05:47:45.151Z,54.71
2023-12-08T05:48:45.363Z,54.92
2023-12-08T05:49:45.600Z,53.72
2023-12-08T05:50:46.994Z,53.12
2023-12-08T05:51:45.611Z,53.83
2023-12-08T05:52:45.595Z,52.38
2023-12-08T05:53:45.532Z,51.83
2023-12-08T05:54:45.535Z,53.34
2023-12-08T05:55:45.596Z,51.03
2023-12-08T05:56:45.671Z,52.24
2023-12-08T05:57:45.711Z,54.44
2023-12-08T05:58:45.718Z,55.25
2023-12-08T05:59:45.641Z,55.85
2023-12-08T06:00:45.651Z,55.50
2023-12-08T06:01:45.720Z,55.26
2023-12-08T06:02:45.768Z,55.26
2023-12-08T06:03:45.721Z,54.46
2023-12-08T06:04:45.896Z,52.70
2023-12-08T06:05:46.187Z,52.47
2023-12-08T06:06:46.405Z,52.71
2023-12-08T06:07:46.588Z,52.36
2023-12-08T06:08:46.800Z,51.54
2023-12-08T06:09:47.020Z,53.56
2023-12-08T06:10:47.158Z,54.25
2023-12-08T06:11:47.656Z,53.39
2023-12-08T06:12:47.689Z,53.90
2023-12-08T06:13:47.807Z,53.52
2023-12-08T06:14:48.069Z,54.00
2023-12-08T06:15:48.204Z,53.55
2023-12-08T06:16:48.422Z,51.24
2023-12-08T06:17:48.771Z,52.85
2023-12-08T06:18:49.076Z,52.37
2023-12-08T06:19:49.074Z,51.98
2023-12-08T06:20:49.409Z,51.84
2023-12-08T06:21:49.466Z,52.35
2023-12-08T06:22:49.708Z,52.82
2023-12-08T06:23:50.060Z,50.98
2023-12-08T06:24:50.124Z,51.38
2023-12-08T06:25:50.339Z,51.84
2023-12-08T06:26:50.638Z,52.49
2023-12-08T06:27:50.832Z,52.47
2023-12-08T06:28:51.043Z,52.58
2023-12-08T06:29:51.351Z,53.30
2023-12-08T06:30:51.527Z,53.51
2023-12-08T06:31:51.808Z,53.16
2023-12-08T06:32:52.085Z,54.08
2023-12-08T06:34:05.038Z,55.85
2023-12-08T06:34:53.275Z,56.96
2023-12-08T06:35:52.238Z,57.21
2023-12-08T06:36:52.194Z,56.81
2023-12-08T06:37:52.185Z,56.15
2023-12-08T06:38:52.203Z,55.89
2023-12-08T06:39:52.166Z,57.03
2023-12-08T06:40:52.162Z,56.14
2023-12-08T06:41:52.128Z,56.56
2023-12-08T06:42:52.046Z,56.18
2023-12-08T06:43:51.993Z,56.36
2023-12-08T06:44:51.997Z,56.09
2023-12-08T06:45:51.916Z,56.89
2023-12-08T06:46:51.898Z,56.35
2023-12-08T06:47:51.964Z,55.79
2023-12-08T06:48:52.000Z,56.16
2023-12-08T06:49:52.075Z,56.24
2023-12-08T06:50:52.182Z,56.49
2023-12-08T06:51:52.431Z,56.44
2023-12-08T06:52:52.739Z,55.75
2023-12-08T06:53:54.144Z,56.27
2023-12-08T06:54:52.812Z,55.51
2023-12-08T06:55:52.833Z,55.33
2023-12-08T06:56:52.894Z,55.16
2023-12-08T06:57:52.849Z,55.18
2023-12-08T06:58:53.604Z,55.53
2023-12-08T06:59:53.071Z,55.69
2023-12-08T07:00:53.076Z,56.32
2023-12-08T07:01:53.081Z,55.67
2023-12-08T07:02:53.082Z,54.88
2023-12-08T07:03:53.272Z,54.97
2023-12-08T07:04:53.238Z,55.34
2023-12-08T07:05:53.330Z,55.05
2023-12-08T07:06:53.273Z,55.26
2023-12-08T07:07:53.289Z,55.08
2023-12-08T07:08:53.447Z,55.25
2023-12-08T07:09:53.581Z,54.80
2023-12-08T07:10:53.748Z,54.74
2023-12-08T07:11:54.462Z,55.09
2023-12-08T07:12:54.032Z,57.32
2023-12-08T07:13:54.065Z,58.69
2023-12-08T07:14:54.305Z,59.26
2023-12-08T07:15:54.189Z,59.94
2023-12-08T07:16:54.278Z,59.82
2023-12-08T07:17:54.395Z,60.03
2023-12-08T07:18:56.000Z,60.35
2023-12-08T07:19:54.520Z,60.67
2023-12-08T07:20:54.331Z,60.18
2023-12-08T07:21:54.270Z,58.76
2023-12-08T07:22:54.232Z,57.09
2023-12-08T07:23:54.238Z,57.24
2023-12-08T07:24:54.184Z,56.95
2023-12-08T07:25:54.149Z,56.68
2023-12-08T07:26:54.122Z,56.68
2023-12-08T07:27:54.067Z,55.87
2023-12-08T07:28:54.016Z,55.74
2023-12-08T07:29:54.011Z,56.48
2023-12-08T07:30:53.949Z,56.99
2023-12-08T07:31:53.906Z,56.92
2023-12-08T07:32:54.031Z,57.54
2023-12-08T07:33:53.976Z,57.29
2023-12-08T07:34:53.959Z,57.83
2023-12-08T07:35:54.088Z,57.25
2023-12-08T07:36:54.308Z,57.66
2023-12-08T07:37:54.574Z,57.57
2023-12-08T07:38:54.806Z,57.01
2023-12-08T07:39:55.030Z,56.42
2023-12-08T07:40:55.246Z,55.24
2023-12-08T07:41:55.490Z,55.47
2023-12-08T07:42:55.691Z,56.37
2023-12-08T07:43:56.127Z,55.50
2023-12-08T07:44:56.282Z,55.34
2023-12-08T07:45:56.389Z,55.34
2023-12-08T07:46:56.628Z,55.49
2023-12-08T07:47:56.991Z,55.03
2023-12-08T07:48:57.196Z,55.46
2023-12-08T07:49:57.413Z,56.12
2023-12-08T07:50:57.624Z,55.26
2023-12-08T07:51:57.910Z,56.25
2023-12-08T07:52:58.059Z,56.16
2023-12-08T07:54:00.077Z,56.82
2023-12-08T07:54:58.368Z,56.64
2023-12-08T07:55:58.273Z,56.51
2023-12-08T07:56:58.506Z,56.70
2023-12-08T07:57:58.183Z,56.00
2023-12-08T07:58:58.142Z,56.33
2023-12-08T07:59:58.115Z,55.02
2023-12-08T08:00:58.036Z,55.33
2023-12-08T08:01:57.969Z,53.97
2023-12-08T08:02:57.976Z,54.54
2023-12-08T08:03:58.643Z,54.07
2023-12-08T08:04:57.772Z,53.25
2023-12-08T08:05:57.839Z,53.57
2023-12-08T08:06:57.716Z,52.89
2023-12-08T08:07:57.591Z,53.55
2023-12-08T08:08:57.557Z,52.37
2023-12-08T08:09:57.462Z,53.03
2023-12-08T08:10:57.426Z,52.84
2023-12-08T08:11:57.453Z,51.93
2023-12-08T08:12:57.379Z,52.63
2023-12-08T08:13:57.348Z,53.62
2023-12-08T08:14:57.413Z,53.54
2023-12-08T08:15:57.288Z,51.91
2023-12-08T08:16:57.258Z,49.57
2023-12-08T08:17:57.315Z,50.04
2023-12-08T08:18:57.388Z,51.07
2023-12-08T08:19:57.184Z,50.87
2023-12-08T08:20:57.215Z,51.78
2023-12-08T08:22:28.008Z,51.06
2023-12-08T08:22:58.090Z,51.25
2023-12-08T08:23:57.059Z,50.90
2023-12-08T08:24:56.948Z,51.55
2023-12-08T08:25:58.454Z,52.63
2023-12-08T08:26:56.852Z,53.05
2023-12-08T08:27:57.770Z,53.09
2023-12-08T08:28:56.690Z,53.40
2023-12-08T08:29:56.688Z,53.17
2023-12-08T08:30:56.555Z,52.62
2023-12-08T08:31:56.509Z,53.34
2023-12-08T08:32:56.506Z,53.20
2023-12-08T08:33:56.516Z,53.18
2023-12-08T08:34:58.001Z,53.86
2023-12-08T08:35:56.353Z,53.49
2023-12-08T08:36:56.324Z,54.09
2023-12-08T08:37:56.320Z,53.37
2023-12-08T08:38:56.509Z,53.40
2023-12-08T08:39:56.736Z,53.31
2023-12-08T08:40:56.892Z,52.76
2023-12-08T08:41:57.098Z,52.47
2023-12-08T08:42:57.317Z,51.15
2023-12-08T08:43:57.454Z,50.62
2023-12-08T08:44:57.728Z,50.79
2023-12-08T08:45:57.856Z,49.82
2023-12-08T08:46:57.998Z,50.45
2023-12-08T08:47:58.384Z,49.73
2023-12-08T08:48:58.590Z,48.84
2023-12-08T08:49:58.768Z,49.92
2023-12-08T08:50:58.796Z,51.78
2023-12-08T08:51:59.043Z,52.98
2023-12-08T08:52:59.233Z,52.69
2023-12-08T08:53:59.455Z,53.18
2023-12-08T08:54:59.636Z,52.27
2023-12-08T08:55:59.775Z,53.23
2023-12-08T08:56:59.985Z,53.10
2023-12-08T08:58:00.225Z,51.16
2023-12-08T08:59:00.326Z,48.25
2023-12-08T09:00:01.342Z,50.93
2023-12-08T09:01:00.599Z,54.43
2023-12-08T09:02:00.558Z,56.06
2023-12-08T09:03:00.662Z,54.85
2023-12-08T09:04:00.652Z,53.48
2023-12-08T09:05:00.749Z,55.02
2023-12-08T09:06:00.816Z,54.89
2023-12-08T09:07:00.913Z,54.90
2023-12-08T09:08:01.046Z,52.86
2023-12-08T09:09:01.247Z,51.81
2023-12-08T09:10:01.391Z,51.16
2023-12-08T09:11:01.666Z,52.12
2023-12-08T09:12:01.867Z,51.36
2023-12-08T09:13:02.046Z,50.90
2023-12-08T09:14:02.238Z,50.43
2023-12-08T09:15:02.521Z,50.52
2023-12-08T09:16:02.631Z,51.32
2023-12-08T09:17:02.890Z,50.83
2023-12-08T09:18:03.193Z,51.08
2023-12-08T09:19:03.423Z,51.10
2023-12-08T09:20:03.454Z,51.44
2023-12-08T09:21:03.742Z,51.13
2023-12-08T09:22:03.871Z,51.38
2023-12-08T09:23:04.068Z,51.54
2023-12-08T09:24:04.363Z,51.44
2023-12-08T09:25:04.512Z,52.55
2023-12-08T09:26:04.800Z,52.68
2023-12-08T09:27:05.072Z,53.99
2023-12-08T09:28:05.159Z,53.68
2023-12-08T09:29:05.430Z,53.34
2023-12-08T09:30:05.683Z,53.77
2023-12-08T09:31:05.860Z,53.52
2023-12-08T09:32:06.062Z,53.11
2023-12-08T09:33:06.624Z,53.45
2023-12-08T09:34:06.351Z,53.77
2023-12-08T09:35:06.267Z,53.85
2023-12-08T09:36:06.317Z,53.65
2023-12-08T09:37:26.345Z,54.34
2023-12-08T09:38:08.480Z,53.79
2023-12-08T09:39:06.121Z,55.17
2023-12-08T09:40:05.974Z,54.44
2023-12-08T09:41:05.976Z,54.12
2023-12-08T09:42:05.833Z,54.00
2023-12-08T09:43:05.773Z,54.56
2023-12-08T09:44:05.715Z,55.76
2023-12-08T09:45:05.716Z,56.01
2023-12-08T09:46:05.608Z,56.60
2023-12-08T09:47:05.543Z,56.14
2023-12-08T09:48:05.574Z,55.40
2023-12-08T09:49:05.557Z,55.72
2023-12-08T09:50:05.343Z,55.79
2023-12-08T09:51:06.061Z,57.39
2023-12-08T09:52:05.225Z,56.79
2023-12-08T09:53:05.143Z,56.93
2023-12-08T09:54:05.143Z,57.46
2023-12-08T09:55:05.015Z,57.55
2023-12-08T09:56:04.973Z,57.57
2023-12-08T09:57:04.943Z,57.87
2023-12-08T09:58:04.869Z,57.62
2023-12-08T09:59:05.031Z,58.11
2023-12-08T10:00:05.000Z,59.07
2023-12-08T10:01:04.971Z,57.84
2023-12-08T10:02:04.905Z,57.32
2023-12-08T10:03:04.847Z,56.67
2023-12-08T10:04:04.788Z,57.33
2023-12-08T10:05:04.746Z,58.11
2023-12-08T10:06:04.763Z,59.33
2023-12-08T10:07:04.665Z,59.63
2023-12-08T10:08:04.638Z,61.34
2023-12-08T10:09:04.679Z,62.61
2023-12-08T10:10:04.709Z,64.19
2023-12-08T10:11:04.642Z,64.57
2023-12-08T10:12:04.660Z,64.93
2023-12-08T10:13:04.685Z,64.91
2023-12-08T10:14:04.651Z,65.49
2023-12-08T10:15:05.028Z,66.39
2023-12-08T10:16:05.121Z,66.99
2023-12-08T10:17:05.367Z,66.80
2023-12-08T10:18:05.722Z,67.74
2023-12-08T10:19:05.952Z,68.31
2023-12-08T10:20:06.153Z,68.17
2023-12-08T10:21:06.336Z,66.57
2023-12-08T10:22:06.584Z,67.36
2023-12-08T10:23:06.829Z,67.90
2023-12-08T10:24:07.086Z,66.13
2023-12-08T10:25:07.292Z,67.52
2023-12-08T10:26:07.484Z,70.04
2023-12-08T10:27:07.836Z,69.96
2023-12-08T10:28:08.048Z,69.60
2023-12-08T10:29:08.253Z,70.11
2023-12-08T10:30:08.578Z,70.81
2023-12-08T10:31:08.805Z,70.87
2023-12-08T10:32:09.036Z,69.42
2023-12-08T10:33:09.424Z,68.06
2023-12-08T10:34:09.606Z,68.41
2023-12-08T10:35:09.760Z,68.59
2023-12-08T10:36:10.028Z,68.24
2023-12-08T10:37:10.246Z,67.68
2023-12-08T10:38:11.226Z,67.51
2023-12-08T10:39:10.530Z,66.41
2023-12-08T10:40:10.497Z,66.64
2023-12-08T10:41:10.507Z,67.32
2023-12-08T10:42:10.583Z,67.77
2023-12-08T10:43:10.716Z,67.40
2023-12-08T10:44:10.969Z,66.77
2023-12-08T10:45:11.281Z,66.54
2023-12-08T10:46:11.499Z,66.79
2023-12-08T10:47:11.700Z,67.05
2023-12-08T10:48:11.971Z,67.95
2023-12-08T10:49:12.231Z,68.08
2023-12-08T10:50:12.390Z,67.70
2023-12-08T10:51:12.429Z,67.41
2023-12-08T10:52:12.385Z,66.89
2023-12-08T10:53:12.404Z,67.09
2023-12-08T10:54:12.381Z,67.16
2023-12-08T10:55:12.570Z,68.77
2023-12-08T10:56:12.790Z,68.70
2023-12-08T10:57:12.791Z,69.25
2023-12-08T10:58:12.756Z,68.47
2023-12-08T10:59:12.766Z,68.27
2023-12-08T11:00:12.817Z,68.60
2023-12-08T11:01:12.860Z,68.07
2023-12-08T11:02:13.100Z,68.89
2023-12-08T11:03:13.401Z,68.09
2023-12-08T11:04:13.664Z,68.32
2023-12-08T11:05:13.908Z,69.76
2023-12-08T11:06:14.071Z,70.30
2023-12-08T11:07:14.250Z,70.46
2023-12-08T11:08:14.923Z,70.04
2023-12-08T11:09:14.459Z,69.91
2023-12-08T11:10:14.412Z,70.21
2023-12-08T11:11:14.437Z,70.20
2023-12-08T11:12:14.566Z,70.97
2023-12-08T11:13:14.487Z,72.79
2023-12-08T11:14:14.783Z,72.51
2023-12-08T11:15:14.890Z,72.04
2023-12-08T11:16:15.117Z,71.27
2023-12-08T11:17:15.274Z,70.56
2023-12-08T11:18:15.753Z,70.24
2023-12-08T11:19:15.883Z,70.27
2023-12-08T11:20:15.952Z,70.43
2023-12-08T11:21:16.278Z,69.78
2023-12-08T11:22:16.410Z,69.60
2023-12-08T11:23:16.598Z,69.55
2023-12-08T11:24:17.042Z,69.81
2023-12-08T11:25:16.953Z,69.89
2023-12-08T11:26:16.847Z,70.69
2023-12-08T11:27:16.966Z,71.50
2023-12-08T11:28:16.775Z,71.21
2023-12-08T11:29:16.783Z,71.12
2023-12-08T11:30:16.740Z,69.74
2023-12-08T11:31:16.671Z,70.94
2023-12-08T11:32:16.686Z,70.03
2023-12-08T11:33:16.755Z,69.68
2023-12-08T11:34:16.664Z,68.94
2023-12-08T11:35:16.583Z,69.60
2023-12-08T11:36:16.600Z,71.13
2023-12-08T11:37:16.524Z,70.34
2023-12-08T11:38:16.473Z,70.28
2023-12-08T11:39:16.481Z,70.19
2023-12-08T11:40:16.478Z,70.64
2023-12-08T11:41:16.588Z,70.44
2023-12-08T11:42:16.454Z,69.65
2023-12-08T11:43:16.470Z,68.87
2023-12-08T11:44:16.469Z,68.19
2023-12-08T11:45:16.459Z,68.19
2023-12-08T11:46:16.488Z,69.10
2023-12-08T11:47:16.474Z,69.76
2023-12-08T11:48:16.580Z,69.39
2023-12-08T11:49:16.498Z,68.64
2023-12-08T11:50:16.370Z,68.51
2023-12-08T11:51:16.336Z,68.16
2023-12-08T11:52:16.294Z,68.09
2023-12-08T11:53:16.260Z,69.02
2023-12-08T11:54:16.265Z,68.60
2023-12-08T11:55:21.704Z,68.53
2023-12-08T11:56:17.321Z,69.36
2023-12-08T11:57:16.264Z,70.35
2023-12-08T11:58:16.189Z,70.54
2023-12-08T11:59:16.119Z,69.49
2023-12-08T12:00:16.099Z,69.28
2023-12-08T12:01:16.025Z,69.36
2023-12-08T12:02:15.943Z,69.21
2023-12-08T12:03:15.940Z,69.07
2023-12-08T12:04:15.875Z,69.42
2023-12-08T12:05:15.712Z,70.03
2023-12-08T12:06:16.836Z,70.88
2023-12-08T12:07:15.621Z,69.78
2023-12-08T12:08:15.593Z,69.84
2023-12-08T12:09:15.637Z,70.57
2023-12-08T12:10:15.548Z,69.63
2023-12-08T12:11:17.935Z,69.65
2023-12-08T12:12:15.613Z,69.33
2023-12-08T12:13:15.627Z,69.93
2023-12-08T12:14:15.650Z,70.24
2023-12-08T12:15:15.788Z,70.85
2023-12-08T12:16:16.014Z,72.07
2023-12-08T12:17:16.971Z,73.04
2023-12-08T12:18:16.430Z,72.62
2023-12-08T12:19:16.368Z,72.79
2023-12-08T12:20:16.260Z,72.57
2023-12-08T12:21:16.319Z,72.72
2023-12-08T12:22:16.276Z,72.30
2023-12-08T12:23:18.332Z,72.06
2023-12-08T12:24:16.220Z,71.80
2023-12-08T12:25:16.197Z,71.72
2023-12-08T12:26:16.101Z,71.00
2023-12-08T12:27:16.142Z,70.37
2023-12-08T12:28:16.033Z,70.41
2023-12-08T12:29:15.966Z,70.43
2023-12-08T12:30:15.959Z,70.24
2023-12-08T12:31:15.883Z,69.28
2023-12-08T12:32:15.889Z,68.41
2023-12-08T12:33:15.936Z,68.04
2023-12-08T12:34:15.894Z,68.38
2023-12-08T12:35:15.686Z,68.69
2023-12-08T12:36:15.734Z,69.51
2023-12-08T12:37:15.601Z,69.91
2023-12-08T12:38:15.561Z,70.84
2023-12-08T12:39:15.540Z,70.92
2023-12-08T12:40:15.509Z,71.05
2023-12-08T12:41:15.449Z,71.89
2023-12-08T12:42:15.476Z,72.37
2023-12-08T12:43:15.337Z,72.29
2023-12-08T12:44:15.294Z,73.12
2023-12-08T12:45:15.235Z,73.17
2023-12-08T12:46:15.174Z,73.03
2023-12-08T12:47:15.120Z,72.96
2023-12-08T12:48:15.276Z,72.80
2023-12-08T12:49:15.098Z,72.50
2023-12-08T12:50:14.892Z,72.19
2023-12-08T12:51:15.044Z,71.91
2023-12-08T12:52:15.219Z,71.67
2023-12-08T12:53:15.541Z,70.65
2023-12-08T12:54:15.701Z,70.04